»·PEaware :: N46W L88-KSBP

N46W :: L88-KSBP

FLIGHT INFORMATION

Flight Status: Arrived
Operator: Privately registered:
United States
More flights under this callsign
Pilot: Rick S. (2164)
Aircraft: PIPER PA-24 COMMANCHE
(PA24)
More flights by this aircraft type
Origin: L88 New Cuyama
United States
Destination: KSBP San Luis Co Regl
United States
More flights between these airports :: More routes between these airports
Route:
File this flight plan on PilotEdge
Remarks: CAT2
Altitude:
(Current/Filed)
3,000ft
Speed:
(Current/Filed)
110kts
Departed: 15-Jun-17 04:59 PM
Arrived: 15-Jun-17 06:04 PM
Distance/Time
Traveled:
50nm/1:05
Distance/Time
To Go:
Arrived

Flight Plot

Page will automatically refresh every two minutes.


Map Options




Map Legend


Flown Route
Filed Route
Departure Airport
Arrival Airport
Navaid (VOR, NDB)
Fix

Horizontal Profiles

Position Reports

Time Latitude Longitude Heading Altitude Ground
Speed
15-Jun-17 16:35 34.943883 -119.690761 23 2206ft 0kts
15-Jun-17 16:36 34.943883 -119.690761 23 2206ft 0kts
15-Jun-17 16:37 34.943883 -119.690761 23 2206ft 0kts
15-Jun-17 16:38 34.943883 -119.690761 23 2206ft 0kts
15-Jun-17 16:39 34.943883 -119.690761 23 2206ft 0kts
15-Jun-17 16:40 34.943883 -119.690761 23 2206ft 0kts
15-Jun-17 16:41 34.943883 -119.690761 23 2206ft 0kts
15-Jun-17 16:42 34.943883 -119.690761 23 2206ft 0kts
15-Jun-17 16:43 34.943883 -119.690761 23 2206ft 0kts
15-Jun-17 16:44 34.943883 -119.690761 23 2206ft 0kts
15-Jun-17 16:45 34.943883 -119.690761 23 2206ft 0kts
15-Jun-17 16:46 34.943883 -119.690761 23 2206ft 0kts
15-Jun-17 16:47 34.943884 -119.690761 23 2206ft 0kts
15-Jun-17 16:48 34.943885 -119.690760 23 2206ft 0kts
15-Jun-17 16:49 34.943886 -119.690760 23 2206ft 0kts
15-Jun-17 16:50 34.943887 -119.690759 23 2206ft 0kts
15-Jun-17 16:51 34.943888 -119.690758 23 2206ft 0kts
15-Jun-17 16:52 34.943890 -119.690758 23 2206ft 0kts
15-Jun-17 16:53 34.943891 -119.690757 23 2206ft 0kts
15-Jun-17 16:54 34.943892 -119.690757 23 2206ft 0kts
15-Jun-17 16:55 34.943893 -119.690756 23 2206ft 0kts
15-Jun-17 16:56 34.943922 -119.690607 157 2206ft 2kts
15-Jun-17 16:57 34.943108 -119.690987 207 2206ft 0kts
15-Jun-17 16:58 34.941529 -119.689399 116 2206ft 20kts
15-Jun-17 16:59 34.938806 -119.682804 115 2206ft 21kts
15-Jun-17 17:00 34.937633 -119.679899 291 2206ft 0kts
15-Jun-17 17:01 34.946161 -119.700230 297 2557ft 99kts
15-Jun-17 17:02 34.961192 -119.731560 301 3465ft 110kts
15-Jun-17 17:03 34.979047 -119.761654 303 4428ft 112kts
15-Jun-17 17:04 34.996433 -119.800499 295 4722ft 150kts
15-Jun-17 17:27 34.943884 -119.690761 23 2206ft 0kts
15-Jun-17 17:28 34.943884 -119.690761 23 2206ft 0kts
15-Jun-17 17:29 34.943884 -119.690761 23 2206ft 0kts
15-Jun-17 17:30 34.943885 -119.690760 23 2206ft 0kts
15-Jun-17 17:31 34.943886 -119.690760 23 2206ft 0kts
15-Jun-17 17:32 34.943887 -119.690759 23 2206ft 0kts
15-Jun-17 17:33 34.942307 -119.691275 136 2206ft 11kts
15-Jun-17 17:34 34.940667 -119.687293 114 2206ft 14kts
15-Jun-17 17:35 34.938767 -119.682614 117 2206ft 16kts
15-Jun-17 17:36 34.937716 -119.679991 291 2206ft 3kts
15-Jun-17 17:37 34.947551 -119.702061 299 2714ft 97kts
15-Jun-17 17:38 34.962802 -119.730346 299 3575ft 113kts
15-Jun-17 17:39 34.976448 -119.764420 294 4322ft 116kts
15-Jun-17 17:40 34.990642 -119.802776 296 4497ft 133kts
15-Jun-17 17:41 35.007661 -119.843080 298 4471ft 132kts
15-Jun-17 17:42 35.024440 -119.879323 306 4614ft 127kts
15-Jun-17 17:43 35.045179 -119.916175 307 4450ft 130kts
15-Jun-17 17:44 35.063884 -119.952497 301 4495ft 126kts
15-Jun-17 17:45 35.082165 -119.988581 307 4502ft 120kts
15-Jun-17 17:46 35.105213 -120.018730 317 4459ft 121kts
15-Jun-17 17:47 35.126278 -120.050687 283 4465ft 126kts
15-Jun-17 17:48 35.132283 -120.092827 275 4540ft 125kts
15-Jun-17 17:49 35.144010 -120.130996 280 4414ft 130kts
15-Jun-17 17:50 35.141210 -120.174016 271 4434ft 128kts
15-Jun-17 17:51 35.143410 -120.214996 291 4444ft 120kts
15-Jun-17 17:52 35.152581 -120.254260 288 4454ft 121kts
15-Jun-17 17:53 35.159420 -120.293174 294 4236ft 106kts
15-Jun-17 17:54 35.165884 -120.328365 281 4034ft 107kts
15-Jun-17 17:55 35.166916 -120.364963 280 3595ft 107kts
15-Jun-17 17:56 35.171397 -120.398769 292 3369ft 93kts
15-Jun-17 17:57 35.178753 -120.430107 292 3029ft 99kts
15-Jun-17 17:58 35.179366 -120.461934 275 2950ft 86kts
15-Jun-17 17:59 35.175688 -120.490860 276 2888ft 84kts
15-Jun-17 18:00 35.177285 -120.519155 285 2715ft 84kts
15-Jun-17 18:01 35.182713 -120.547290 304 2420ft 84kts
15-Jun-17 18:02 35.195365 -120.569535 308 2017ft 82kts
15-Jun-17 18:03 35.209941 -120.593293 308 1346ft 68kts
15-Jun-17 18:04 35.218897 -120.608516 301 1013ft 51kts
15-Jun-17 18:05 35.227292 -120.623593 301 659ft 55kts
15-Jun-17 18:06 35.236156 -120.638979 301 215ft 29kts
15-Jun-17 18:07 35.237503 -120.639999 21 215ft 0kts
15-Jun-17 18:08 35.237863 -120.640073 324 215ft 9kts
15-Jun-17 18:09 35.238950 -120.640888 218 215ft 0kts

Navigation Log

Ident Type
1. L88 Airport
2. KSBP Airport